Time;durP1;ratioP1;P1;durP2;ratioP2;P2;SDS_P1;SDS_P2;PMS_P1;PMS_P2;Temp;Humidity;BMP_temperature;BMP_pressure;BME280_temperature;BME280_humidity;BME280_pressure;Samples;Min_cycle;Max_cycle;Signal;HPM_P1;HPM_P2
2023/04/30 00:02:04;;;;;;;;;45.75;32.75;;;;;10.39;100.00;98298.75;4965715;27;103438;-76
2023/04/30 00:04:40;;;;;;;;;45.25;39.00;;;;;10.35;100.00;98298.34;4971958;28;101652;-75
2023/04/30 00:07:30;;;;;;;;;40.50;35.00;;;;;10.31;100.00;98298.97;4969882;28;101775;-76
2023/04/30 00:10:17;;;;;;;;;41.25;34.00;;;;;10.29;100.00;98297.28;4973001;28;101860;-77
2023/04/30 00:13:12;;;;;;;;;42.25;34.00;;;;;10.26;100.00;98307.69;4968684;28;108545;-77
2023/04/30 00:15:46;;;;;;;;;46.00;36.25;;;;;10.28;100.00;98305.59;4971076;27;102001;-74
2023/04/30 00:18:13;;;;;;;;;32.00;29.50;;;;;10.29;100.00;98291.06;4973301;27;102124;-76
2023/04/30 00:20:40;;;;;;;;;49.25;37.00;;;;;10.26;100.00;98288.78;4970662;28;101629;-76
2023/04/30 00:23:07;;;;;;;;;35.75;33.25;;;;;10.31;100.00;98291.69;4969488;27;103269;-76
2023/04/30 00:25:34;;;;;;;;;38.00;34.00;;;;;10.13;100.00;98259.81;4972524;28;101731;-76
2023/04/30 00:28:01;;;;;;;;;37.00;33.25;;;;;10.27;100.00;98285.00;4972739;28;101598;-76
2023/04/30 00:30:29;;;;;;;;;48.50;39.25;;;;;10.28;100.00;98294.78;4971529;28;101528;-77
2023/04/30 00:32:55;;;;;;;;;49.50;37.25;;;;;10.34;100.00;98298.53;4968862;28;103283;-75
2023/04/30 00:35:23;;;;;;;;;42.00;34.25;;;;;10.31;100.00;98301.66;4972921;28;102434;-75
2023/04/30 00:37:49;;;;;;;;;40.00;30.75;;;;;10.27;100.00;98304.75;4969673;27;101932;-76
2023/04/30 00:40:16;;;;;;;;;41.25;35.25;;;;;10.28;100.00;98300.19;4984639;27;101664;-75
2023/04/30 00:42:43;;;;;;;;;41.50;33.25;;;;;10.23;100.00;98306.22;4967297;28;103337;-76
2023/04/30 00:45:10;;;;;;;;;34.00;33.00;;;;;10.22;100.00;98309.13;4969182;28;101356;-75
2023/04/30 00:47:37;;;;;;;;;39.00;32.00;;;;;10.15;100.00;98309.13;4970490;27;101654;-77
2023/04/30 00:50:05;;;;;;;;;42.50;30.25;;;;;10.07;100.00;98303.88;4972657;27;102170;-75
2023/04/30 00:52:32;;;;;;;;;39.50;32.50;;;;;10.09;100.00;98301.78;4971382;27;103258;-74
2023/04/30 00:54:59;;;;;;;;;32.00;28.50;;;;;10.11;100.00;98315.94;4971387;28;101885;-75
2023/04/30 00:57:27;;;;;;;;;36.75;32.50;;;;;10.05;100.00;98310.50;4969367;28;101500;-75
2023/04/30 00:59:54;;;;;;;;;31.25;25.75;;;;;10.11;100.00;98320.50;4973197;27;105722;-77
2023/04/30 01:02:22;;;;;;;;;34.50;32.50;;;;;10.10;100.00;98318.84;4965355;28;107981;-76
2023/04/30 01:04:50;;;;;;;;;35.50;31.75;;;;;10.04;100.00;98315.06;4964974;28;101512;-75
2023/04/30 01:07:27;;;;;;;;;40.00;31.50;;;;;10.01;100.00;98314.66;4967376;28;101588;-76
2023/04/30 01:10:20;;;;;;;;;31.50;28.75;;;;;10.00;100.00;98318.38;4967720;27;101865;-76
2023/04/30 01:13:41;;;;;;;;;35.25;33.25;;;;;9.98;100.00;98313.22;4968962;27;108381;-76
2023/04/30 01:16:36;;;;;;;;;29.00;26.00;;;;;9.95;100.00;98320.91;4962810;28;105430;-76
2023/04/30 01:19:45;;;;;;;;;34.75;31.25;;;;;9.85;100.00;98326.69;4967279;28;105995;-76
2023/04/30 01:22:41;;;;;;;;;28.25;26.00;;;;;9.82;100.00;98327.06;4948897;27;101829;-75
2023/04/30 01:25:23;;;;;;;;;27.25;21.50;;;;;9.83;100.00;98332.28;4959573;28;108853;-77
2023/04/30 01:28:00;;;;;;;;;31.25;25.25;;;;;9.68;100.00;98312.69;4965239;28;101617;-76
2023/04/30 01:30:30;;;;;;;;;30.50;27.75;;;;;9.77;100.00;98338.47;4968419;28;101484;-77
2023/04/30 01:32:57;;;;;;;;;27.75;25.00;;;;;9.77;100.00;98330.38;4971284;28;101995;-76
2023/04/30 01:35:50;;;;;;;;;24.75;22.00;;;;;9.74;100.00;98325.38;4968590;27;103304;-76
2023/04/30 01:38:35;;;;;;;;;21.00;19.25;;;;;9.78;100.00;98340.13;4966355;28;102032;-75
2023/04/30 01:41:12;;;;;;;;;23.25;19.00;;;;;9.82;100.00;98340.56;4968424;27;101503;-75
2023/04/30 01:43:56;;;;;;;;;20.00;16.75;;;;;9.77;100.00;98341.16;4968456;27;101900;-75
2023/04/30 01:46:29;;;;;;;;;22.00;19.00;;;;;9.70;100.00;98329.53;4967872;27;103364;-77
2023/04/30 01:49:24;;;;;;;;;27.00;24.25;;;;;9.76;100.00;98344.94;4969826;27;102256;-77
2023/04/30 01:52:02;;;;;;;;;23.50;21.00;;;;;9.74;100.00;98346.16;4969855;28;102032;-76
2023/04/30 01:54:33;;;;;;;;;20.50;17.50;;;;;9.81;100.00;98341.63;4973632;28;101532;-76
2023/04/30 01:57:05;;;;;;;;;20.25;17.00;;;;;9.78;100.00;98348.25;4970109;28;108808;-75
2023/04/30 01:59:35;;;;;;;;;22.25;18.00;;;;;9.65;100.00;98325.75;4968363;28;101788;-76
2023/04/30 02:02:02;;;;;;;;;19.75;18.50;;;;;9.77;100.00;98343.88;4972492;28;101579;-76
2023/04/30 02:04:29;;;;;;;;;26.25;22.50;;;;;9.73;100.00;98348.00;4972227;28;102742;-77
2023/04/30 02:06:57;;;;;;;;;22.75;19.50;;;;;9.70;100.00;98339.50;4968247;28;103640;-77
2023/04/30 02:09:24;;;;;;;;;18.00;16.00;;;;;9.70;100.00;98343.03;4967118;28;101698;-77
2023/04/30 02:11:51;;;;;;;;;15.75;15.50;;;;;9.72;100.00;98329.34;4969881;28;101642;-74
2023/04/30 02:14:18;;;;;;;;;23.25;18.00;;;;;9.75;100.00;98345.97;4968585;27;101623;-75
2023/04/30 02:16:45;;;;;;;;;20.00;18.25;;;;;9.71;100.00;98346.56;4968469;28;103554;-76
2023/04/30 02:19:12;;;;;;;;;21.00;19.00;;;;;9.61;100.00;98352.34;4969692;28;101768;-76
2023/04/30 02:21:39;;;;;;;;;18.00;16.75;;;;;9.43;100.00;98316.97;4970366;28;101464;-77
2023/04/30 02:24:06;;;;;;;;;23.00;19.25;;;;;9.55;100.00;98350.44;4971625;27;101757;-76
2023/04/30 02:26:33;;;;;;;;;22.50;18.25;;;;;9.50;100.00;98349.38;4970778;27;103378;-75
2023/04/30 02:29:00;;;;;;;;;18.00;16.25;;;;;9.57;100.00;98355.63;4968918;27;101951;-76
2023/04/30 02:31:27;;;;;;;;;13.50;12.50;;;;;9.46;100.00;98354.31;4971330;28;101432;-76
2023/04/30 02:33:54;;;;;;;;;16.50;16.25;;;;;9.44;100.00;98358.28;4972353;28;101682;-77
2023/04/30 02:36:21;;;;;;;;;17.75;16.75;;;;;9.34;100.00;98351.38;4970260;27;103219;-77
2023/04/30 02:38:48;;;;;;;;;16.75;14.50;;;;;9.50;100.00;98371.78;4971432;28;101793;-74
2023/04/30 02:41:15;;;;;;;;;12.00;11.25;;;;;9.49;100.00;98358.50;4968356;28;101944;-75
2023/04/30 02:43:42;;;;;;;;;16.50;15.25;;;;;9.50;100.00;98360.97;4970970;28;101775;-76
2023/04/30 02:46:09;;;;;;;;;14.50;13.00;;;;;9.47;100.00;98366.78;4965760;28;103298;-76
2023/04/30 02:48:36;;;;;;;;;12.00;12.00;;;;;9.47;100.00;98361.41;4965981;28;101833;-72
2023/04/30 02:51:03;;;;;;;;;17.25;17.00;;;;;9.47;100.00;98366.78;4972867;28;101574;-75
2023/04/30 02:53:30;;;;;;;;;15.75;14.50;;;;;9.44;100.00;98361.81;4971125;28;102011;-76
2023/04/30 02:55:58;;;;;;;;;16.00;15.00;;;;;9.39;100.00;98375.91;4969652;27;103235;-75
2023/04/30 02:58:25;;;;;;;;;19.25;16.75;;;;;9.31;100.00;98372.53;4969810;28;104620;-77
2023/04/30 03:00:52;;;;;;;;;20.25;17.25;;;;;9.06;100.00;98385.63;4969791;27;101905;-76
2023/04/30 03:03:19;;;;;;;;;19.25;16.25;;;;;8.86;100.00;98384.66;4966329;27;101569;-75
2023/04/30 03:05:46;;;;;;;;;19.00;18.50;;;;;8.71;100.00;98400.91;4970472;28;103531;-73
2023/04/30 03:08:13;;;;;;;;;19.00;19.00;;;;;8.52;100.00;98391.63;4969179;28;101770;-77
2023/04/30 03:10:40;;;;;;;;;19.25;16.00;;;;;8.56;100.00;98399.31;4969819;28;104033;-76
2023/04/30 03:13:07;;;;;;;;;29.75;22.00;;;;;8.44;100.00;98407.91;4969321;27;101704;-78
2023/04/30 03:15:34;;;;;;;;;31.00;27.25;;;;;8.30;100.00;98405.28;4971092;28;103291;-76
2023/04/30 03:18:01;;;;;;;;;29.50;26.50;;;;;8.21;100.00;98403.69;4970589;28;101753;-77
2023/04/30 03:20:28;;;;;;;;;29.25;26.25;;;;;8.21;100.00;98417.16;4968072;28;101828;-76
2023/04/30 03:22:55;;;;;;;;;31.75;29.25;;;;;8.13;100.00;98417.28;4978275;28;101605;-76
2023/04/30 03:25:22;;;;;;;;;33.75;30.25;;;;;8.08;100.00;98418.69;4976367;27;103327;-78
2023/04/30 03:27:49;;;;;;;;;35.50;31.25;;;;;7.98;100.00;98426.22;4974801;27;101813;-77
2023/04/30 03:30:16;;;;;;;;;30.75;24.75;;;;;7.96;100.00;98432.84;4973255;27;101852;-79
2023/04/30 03:32:43;;;;;;;;;33.25;28.50;;;;;7.99;100.00;98435.13;4975535;28;101336;-77
2023/04/30 03:35:10;;;;;;;;;33.25;27.75;;;;;7.85;100.00;98426.06;4976646;27;103423;-77
2023/04/30 03:37:37;;;;;;;;;29.75;27.75;;;;;7.80;100.00;98431.19;4976827;27;101515;-76
2023/04/30 03:40:05;;;;;;;;;31.75;26.25;;;;;7.80;100.00;98454.56;4975980;28;101558;-77
2023/04/30 03:42:32;;;;;;;;;33.50;28.25;;;;;7.77;100.00;98449.56;4977711;27;101522;-77
2023/04/30 03:44:59;;;;;;;;;29.25;27.50;;;;;7.78;100.00;98462.00;4968722;27;103094;-77
2023/04/30 03:47:26;;;;;;;;;28.75;27.50;;;;;7.79;100.00;98461.78;4967310;27;102267;-77
2023/04/30 03:49:54;;;;;;;;;34.00;30.00;;;;;7.79;100.00;98455.59;4971340;28;106739;-76
2023/04/30 03:52:21;;;;;;;;;31.00;27.00;;;;;7.76;100.00;98464.88;4969078;28;101965;-78
2023/04/30 03:54:48;;;;;;;;;31.75;29.25;;;;;7.71;100.00;98463.75;4972767;28;103350;-77
2023/04/30 03:57:15;;;;;;;;;37.25;33.75;;;;;7.74;100.00;98472.31;4977468;28;101812;-78
2023/04/30 03:59:42;;;;;;;;;29.75;26.25;;;;;7.69;100.00;98472.03;4967949;27;101666;-77
2023/04/30 04:02:09;;;;;;;;;35.50;32.25;;;;;7.70;100.00;98479.06;4970758;28;102986;-73
2023/04/30 04:04:36;;;;;;;;;33.75;31.25;;;;;7.65;100.00;98483.34;4974732;28;103457;-78
2023/04/30 04:07:03;;;;;;;;;34.75;30.25;;;;;7.59;100.00;98503.75;4973231;27;101763;-75
2023/04/30 04:09:30;;;;;;;;;32.75;29.25;;;;;7.59;100.00;98503.75;4976647;27;101742;-76
2023/04/30 04:11:57;;;;;;;;;35.50;27.75;;;;;7.56;100.00;98504.94;4974661;28;101566;-77
2023/04/30 04:14:24;;;;;;;;;34.75;30.00;;;;;7.51;100.00;98501.16;4972229;27;103525;-76
2023/04/30 04:16:51;;;;;;;;;29.50;27.50;;;;;7.40;100.00;98506.97;4977058;28;101641;-78
2023/04/30 04:19:18;;;;;;;;;32.25;27.00;;;;;7.50;100.00;98526.38;4976329;27;101815;-75
2023/04/30 04:21:45;;;;;;;;;30.50;26.50;;;;;7.41;100.00;98514.03;4978241;27;101782;-77
2023/04/30 04:24:12;;;;;;;;;36.50;31.25;;;;;7.46;100.00;98525.91;4973781;27;102337;-75
2023/04/30 04:26:40;;;;;;;;;25.75;20.00;;;;;7.55;100.00;98527.50;4972483;27;103280;-73
2023/04/30 04:29:09;;;;;;;;;28.25;21.75;;;;;7.62;100.00;98532.97;4974845;28;101575;-78
2023/04/30 04:31:37;;;;;;;;;22.25;21.00;;;;;7.61;100.00;98526.75;4988620;27;101762;-76
2023/04/30 04:34:04;;;;;;;;;28.25;24.75;;;;;7.57;100.00;98536.22;4967643;28;107965;-76
2023/04/30 04:36:32;;;;;;;;;28.25;25.25;;;;;7.58;100.00;98545.97;4970533;27;101979;-79
2023/04/30 04:39:02;;;;;;;;;25.25;24.00;;;;;7.56;100.00;98544.50;4969783;28;101747;-77
2023/04/30 04:41:37;;;;;;;;;26.25;23.75;;;;;7.56;100.00;98548.00;4972390;28;106835;-76
2023/04/30 04:44:04;;;;;;;;;39.50;29.00;;;;;7.42;100.00;98548.00;4970486;28;103351;-77
2023/04/30 04:46:31;;;;;;;;;30.00;28.25;;;;;7.43;100.00;98555.84;4971618;27;101575;-77
2023/04/30 04:48:58;;;;;;;;;26.25;24.25;;;;;7.49;100.00;98556.97;4970910;28;101819;-78
2023/04/30 04:51:26;;;;;;;;;33.25;27.25;;;;;7.33;100.00;98547.22;4971486;28;102025;-77
2023/04/30 04:53:53;;;;;;;;;29.00;23.25;;;;;7.52;100.00;98567.41;4967460;28;103646;-78
2023/04/30 04:56:20;;;;;;;;;31.25;28.25;;;;;7.42;100.00;98577.56;4962201;28;102394;-78
2023/04/30 04:58:47;;;;;;;;;23.00;21.50;;;;;7.46;100.00;98573.50;4967028;28;101817;-77
2023/04/30 05:01:14;;;;;;;;;39.50;28.25;;;;;7.49;100.00;98578.50;4970110;27;101998;-77
2023/04/30 05:03:41;;;;;;;;;29.00;27.25;;;;;7.51;100.00;98587.25;4969980;28;103516;-77
2023/04/30 05:06:08;;;;;;;;;30.00;27.25;;;;;7.48;100.00;98584.91;4968255;28;101646;-78
2023/04/30 05:08:35;;;;;;;;;26.75;24.50;;;;;7.51;100.00;98582.72;4970768;27;101345;-78
2023/04/30 05:11:02;;;;;;;;;30.75;27.00;;;;;7.55;100.00;98591.25;4970488;27;102146;-77
2023/04/30 05:13:29;;;;;;;;;37.50;28.50;;;;;7.52;100.00;98594.31;4972111;28;103276;-78
2023/04/30 05:15:56;;;;;;;;;29.75;26.75;;;;;7.50;100.00;98596.31;4971566;27;101917;-79
2023/04/30 05:18:23;;;;;;;;;33.50;27.50;;;;;7.60;100.00;98602.28;4971752;27;101303;-76
2023/04/30 05:20:50;;;;;;;;;30.25;27.50;;;;;7.62;100.00;98603.78;4972394;27;101459;-75
2023/04/30 05:23:17;;;;;;;;;30.50;27.25;;;;;7.66;99.98;98616.84;4965571;27;103442;-77
2023/04/30 05:25:44;;;;;;;;;24.00;23.50;;;;;7.60;98.31;98615.75;4967663;28;101538;-76
2023/04/30 05:28:11;;;;;;;;;29.00;23.25;;;;;7.68;98.57;98618.38;4968136;27;101950;-77
2023/04/30 05:30:38;;;;;;;;;29.00;25.25;;;;;7.72;96.85;98621.53;4970251;28;101586;-76
2023/04/30 05:33:05;;;;;;;;;27.00;19.50;;;;;7.69;96.81;98628.13;4969236;28;103327;-77
2023/04/30 05:35:34;;;;;;;;;25.25;21.25;;;;;7.76;96.53;98620.13;4969943;28;101700;-76
2023/04/30 05:38:02;;;;;;;;;25.75;23.75;;;;;7.80;96.57;98629.50;4968239;28;101675;-76
2023/04/30 05:40:31;;;;;;;;;27.75;23.50;;;;;7.80;96.42;98632.19;4972785;28;101730;-78
2023/04/30 05:42:58;;;;;;;;;24.25;20.25;;;;;7.77;96.75;98625.34;4971588;28;103470;-77
2023/04/30 05:45:25;;;;;;;;;30.00;25.25;;;;;7.86;96.43;98634.19;4970696;28;102029;-75
2023/04/30 05:47:52;;;;;;;;;26.25;21.50;;;;;7.89;95.04;98639.19;4983131;28;102261;-77
2023/04/30 05:50:19;;;;;;;;;29.00;26.00;;;;;7.92;95.51;98639.69;4968952;28;101630;-76
2023/04/30 05:52:46;;;;;;;;;27.75;24.75;;;;;7.89;94.23;98645.41;4970045;27;103489;-78
2023/04/30 05:55:13;;;;;;;;;26.75;22.50;;;;;7.82;95.22;98633.72;4972854;28;101724;-75
2023/04/30 05:57:40;;;;;;;;;28.25;21.00;;;;;7.95;94.69;98650.06;4983801;27;101935;-76
2023/04/30 06:00:08;;;;;;;;;29.50;22.50;;;;;8.03;94.60;98649.16;4971270;28;101628;-77
2023/04/30 06:02:35;;;;;;;;;26.25;24.25;;;;;8.00;93.65;98654.91;4970424;28;103385;-75
2023/04/30 06:05:02;;;;;;;;;25.75;23.00;;;;;8.00;91.94;98658.44;4866064;28;102155;-76
2023/04/30 06:07:29;;;;;;;;;23.75;21.00;;;;;8.10;93.41;98665.41;4959805;28;101918;-76
2023/04/30 06:09:56;;;;;;;;;24.00;21.25;;;;;8.14;93.62;98661.34;4970361;27;101927;-77
2023/04/30 06:12:23;;;;;;;;;23.00;22.50;;;;;8.12;90.91;98666.06;4970183;28;103367;-76
2023/04/30 06:14:51;;;;;;;;;23.50;22.75;;;;;8.03;91.54;98655.38;4969380;27;101639;-74
2023/04/30 06:17:18;;;;;;;;;26.75;21.75;;;;;8.08;91.13;98663.72;4969437;27;101859;-74
2023/04/30 06:19:45;;;;;;;;;24.75;23.00;;;;;8.15;90.58;98671.91;4965818;27;102120;-76
2023/04/30 06:22:12;;;;;;;;;21.75;21.00;;;;;8.31;92.41;98665.56;4968639;28;104889;-74
2023/04/30 06:24:39;;;;;;;;;26.00;24.00;;;;;8.20;91.65;98671.34;4972456;28;101667;-77
2023/04/30 06:27:06;;;;;;;;;23.00;19.50;;;;;8.26;90.95;98674.16;4971162;28;101528;-76
2023/04/30 06:29:33;;;;;;;;;22.75;18.75;;;;;8.25;91.29;98658.16;4971014;28;103334;-76
2023/04/30 06:32:00;;;;;;;;;22.50;20.50;;;;;8.57;89.38;98681.25;4971312;27;103366;-75
2023/04/30 06:34:27;;;;;;;;;22.00;17.25;;;;;8.54;88.78;98676.25;4969058;28;101578;-76
2023/04/30 06:36:54;;;;;;;;;22.00;21.25;;;;;8.53;89.04;98672.72;4969726;28;102382;-76
2023/04/30 06:39:21;;;;;;;;;19.25;17.25;;;;;8.71;89.00;98673.16;4985985;27;101902;-74
2023/04/30 06:41:48;;;;;;;;;21.75;18.00;;;;;8.72;87.01;98674.00;4966124;27;103322;-77
2023/04/30 06:44:15;;;;;;;;;21.75;19.50;;;;;8.83;87.91;98676.19;4969766;28;101631;-75
2023/04/30 06:46:42;;;;;;;;;22.00;18.25;;;;;9.01;85.58;98671.25;4972359;27;101683;-75
2023/04/30 06:49:09;;;;;;;;;18.75;16.00;;;;;9.30;85.84;98678.44;4972267;27;102063;-76
2023/04/30 06:51:36;;;;;;;;;19.50;18.25;;;;;9.16;83.46;98682.84;4968839;28;103452;-76
2023/04/30 06:54:03;;;;;;;;;18.50;18.00;;;;;9.07;85.00;98689.38;4968422;28;101905;-74
2023/04/30 06:56:30;;;;;;;;;19.00;17.50;;;;;9.16;85.60;98687.41;4968915;28;101636;-76
2023/04/30 06:58:57;;;;;;;;;19.00;17.75;;;;;9.27;83.69;98685.06;4970373;28;102049;-76
2023/04/30 07:01:24;;;;;;;;;24.75;19.00;;;;;9.49;82.49;98687.78;4966129;28;103289;-77
2023/04/30 07:03:53;;;;;;;;;20.00;17.75;;;;;9.61;81.82;98687.06;4969956;27;101424;-76
2023/04/30 07:06:21;;;;;;;;;19.75;17.25;;;;;9.67;78.36;98685.47;4969136;28;101970;-76
2023/04/30 07:08:48;;;;;;;;;25.00;19.75;;;;;9.82;79.02;98684.34;4972517;28;102402;-75
2023/04/30 07:11:15;;;;;;;;;18.25;16.00;;;;;10.04;80.29;98690.56;4960838;28;103320;-76
2023/04/30 07:13:42;;;;;;;;;14.00;13.00;;;;;10.03;79.08;98677.25;4971716;28;101671;-75
2023/04/30 07:16:09;;;;;;;;;14.25;14.25;;;;;10.22;79.82;98687.44;4956550;28;101644;-75
2023/04/30 07:18:37;;;;;;;;;14.75;13.00;;;;;10.34;78.93;98696.66;4962620;28;101926;-76
2023/04/30 07:21:05;;;;;;;;;18.00;15.50;;;;;10.11;75.89;98693.31;4959126;28;103233;-76
2023/04/30 07:23:32;;;;;;;;;14.75;13.00;;;;;10.25;75.95;98689.72;4959424;28;102029;-75
2023/04/30 07:25:59;;;;;;;;;13.25;12.75;;;;;10.37;73.77;98698.94;4957859;28;102453;-75
2023/04/30 07:28:26;;;;;;;;;17.25;15.00;;;;;10.31;75.58;98698.91;4955192;28;101835;-76
2023/04/30 07:30:53;;;;;;;;;8.75;7.00;;;;;10.56;73.38;98711.78;4958406;28;103458;-77
2023/04/30 07:33:21;;;;;;;;;18.00;12.50;;;;;10.53;73.87;98703.22;4968082;28;101686;-77
2023/04/30 07:35:47;;;;;;;;;14.50;14.50;;;;;10.78;74.29;98700.88;4962484;28;101958;-77
2023/04/30 07:38:16;;;;;;;;;14.50;12.25;;;;;10.77;72.91;98704.59;4963232;28;101763;-78
2023/04/30 07:40:43;;;;;;;;;14.00;12.00;;;;;11.27;75.88;98706.91;4964884;28;103316;-77
2023/04/30 07:43:10;;;;;;;;;14.25;12.25;;;;;11.40;75.04;98715.09;4962855;28;101612;-75
2023/04/30 07:45:37;;;;;;;;;15.25;13.75;;;;;11.52;72.82;98705.34;4965948;28;101939;-75
2023/04/30 07:48:04;;;;;;;;;15.75;14.75;;;;;11.30;69.99;98717.34;4958113;28;102735;-78
2023/04/30 07:50:34;;;;;;;;;14.00;13.75;;;;;11.02;71.07;98722.84;4952115;28;103803;-76
2023/04/30 07:53:01;;;;;;;;;14.50;13.00;;;;;10.77;71.57;98718.97;4965061;27;101875;-76
2023/04/30 07:55:28;;;;;;;;;13.25;11.50;;;;;10.88;71.66;98729.22;4959172;28;101785;-75
2023/04/30 07:57:55;;;;;;;;;15.00;13.25;;;;;10.90;70.54;98715.50;4959318;28;102331;-76
2023/04/30 08:00:22;;;;;;;;;15.00;12.00;;;;;11.35;69.88;98724.84;4957069;28;103492;-73
2023/04/30 08:02:49;;;;;;;;;16.50;14.75;;;;;11.47;69.33;98724.06;4972757;28;101483;-75
2023/04/30 08:05:17;;;;;;;;;15.50;14.00;;;;;11.72;72.00;98718.06;4962434;28;101624;-76
2023/04/30 08:07:43;;;;;;;;;11.75;10.50;;;;;12.30;69.78;98724.63;4962939;28;101680;-75
2023/04/30 08:10:11;;;;;;;;;13.75;12.75;;;;;12.15;67.30;98715.88;4954179;28;103343;-76
2023/04/30 08:12:38;;;;;;;;;13.25;12.00;;;;;12.18;64.99;98702.75;4968336;28;101570;-75
2023/04/30 08:15:08;;;;;;;;;11.50;10.25;;;;;12.49;64.27;98721.91;4966800;28;101662;-76
2023/04/30 08:17:35;;;;;;;;;9.50;8.25;;;;;12.08;61.25;98711.28;4965102;28;101518;-77
2023/04/30 08:20:03;;;;;;;;;7.75;7.25;;;;;12.62;64.32;98728.34;4967545;28;103612;-75
2023/04/30 08:22:30;;;;;;;;;6.00;6.00;;;;;12.02;59.60;98738.41;4960574;28;101639;-77
2023/04/30 08:25:00;;;;;;;;;7.00;7.00;;;;;12.03;61.30;98732.75;4963479;28;102069;-76
2023/04/30 08:27:30;;;;;;;;;7.00;6.25;;;;;12.35;59.34;98728.38;4969273;28;101777;-74
2023/04/30 08:29:57;;;;;;;;;8.25;7.75;;;;;12.11;61.18;98742.56;4967965;28;103465;-76
2023/04/30 08:32:24;;;;;;;;;6.50;6.50;;;;;12.22;60.96;98733.81;4962119;28;101555;-74
2023/04/30 08:34:53;;;;;;;;;8.00;7.25;;;;;12.36;62.08;98724.63;4964817;27;101532;-75
2023/04/30 08:37:20;;;;;;;;;10.00;10.00;;;;;12.58;61.54;98727.09;4969639;28;101860;-75
2023/04/30 08:39:47;;;;;;;;;6.50;5.75;;;;;12.53;59.84;98736.72;4961712;28;107868;-75
2023/04/30 08:42:16;;;;;;;;;7.75;7.75;;;;;12.30;60.63;98740.88;4964667;28;101829;-74
2023/04/30 08:44:45;;;;;;;;;10.00;7.00;;;;;11.85;59.12;98737.94;4967605;28;101708;-77
2023/04/30 08:47:13;;;;;;;;;8.25;8.25;;;;;12.12;57.84;98741.50;4972090;28;101738;-76
2023/04/30 08:49:40;;;;;;;;;9.00;8.00;;;;;12.41;62.96;98732.97;4946059;28;103622;-74
2023/04/30 08:52:08;;;;;;;;;8.00;8.00;;;;;12.84;59.48;98735.19;4960676;28;101475;-76
2023/04/30 08:54:36;;;;;;;;;7.00;6.25;;;;;13.10;57.45;98734.31;4963491;27;101447;-75
2023/04/30 08:57:04;;;;;;;;;8.00;8.00;;;;;12.39;58.26;98734.22;4961743;28;103074;-75
2023/04/30 08:59:31;;;;;;;;;7.25;7.00;;;;;12.25;57.03;98737.97;4967927;28;103285;-75
2023/04/30 09:02:00;;;;;;;;;12.75;9.25;;;;;12.38;58.36;98744.22;4965396;28;101982;-77
2023/04/30 09:04:28;;;;;;;;;8.00;8.00;;;;;12.60;56.58;98742.16;4964032;27;102081;-78
2023/04/30 09:06:58;;;;;;;;;7.25;7.25;;;;;12.70;57.78;98736.28;4965121;27;101924;-74
2023/04/30 09:09:29;;;;;;;;;6.50;6.50;;;;;12.79;55.54;98738.53;4965725;28;103691;-76
2023/04/30 09:12:19;;;;;;;;;7.00;6.00;;;;;12.97;56.51;98735.16;4967994;28;101616;-77
2023/04/30 09:15:05;;;;;;;;;8.25;7.00;;;;;13.18;56.37;98740.38;4964251;27;101388;-74
2023/04/30 09:17:33;;;;;;;;;7.00;7.00;;;;;13.11;54.71;98739.53;4968788;28;101517;-77
2023/04/30 09:20:11;;;;;;;;;7.50;7.50;;;;;12.89;56.63;98751.69;4965432;28;107876;-75
2023/04/30 09:22:39;;;;;;;;;6.75;5.50;;;;;13.36;58.49;98745.09;4967466;28;101628;-74
2023/04/30 09:25:07;;;;;;;;;7.00;6.25;;;;;13.67;58.09;98752.47;4967394;28;101593;-75
2023/04/30 09:27:34;;;;;;;;;7.00;7.00;;;;;13.66;55.49;98753.53;4968331;28;101785;-75
2023/04/30 09:30:03;;;;;;;;;11.00;7.75;;;;;13.66;53.87;98753.53;4962682;28;103335;-74
2023/04/30 09:32:30;;;;;;;;;6.75;6.25;;;;;13.44;55.90;98739.41;4967482;28;102398;-75
2023/04/30 09:34:57;;;;;;;;;8.25;6.00;;;;;12.59;54.97;98750.47;4971042;28;103380;-77
2023/04/30 09:37:37;;;;;;;;;9.25;9.00;;;;;12.64;54.18;98753.41;4957289;28;101910;-76
2023/04/30 09:40:05;;;;;;;;;8.00;8.00;;;;;12.85;59.86;98759.41;4969642;28;107870;-75
2023/04/30 09:42:32;;;;;;;;;7.75;7.25;;;;;13.06;56.29;98754.78;4972792;28;101423;-76
2023/04/30 09:44:59;;;;;;;;;8.00;6.00;;;;;12.70;54.80;98752.56;4972216;28;101685;-75
2023/04/30 09:47:29;;;;;;;;;4.75;4.75;;;;;13.16;53.70;98739.75;4964131;28;101633;-75
2023/04/30 09:49:58;;;;;;;;;5.00;5.00;;;;;13.56;51.51;98747.72;4968106;28;104020;-76
2023/04/30 09:52:26;;;;;;;;;9.00;8.00;;;;;13.40;52.76;98757.19;4962558;28;101644;-75
2023/04/30 09:54:53;;;;;;;;;9.00;7.25;;;;;13.40;53.98;98749.06;4971599;27;101866;-75
2023/04/30 09:57:23;;;;;;;;;8.50;8.00;;;;;13.54;59.97;98738.97;4972346;28;101421;-77
2023/04/30 09:59:51;;;;;;;;;8.25;5.50;;;;;13.92;51.69;98734.34;4955382;28;103432;-76
2023/04/30 10:02:22;;;;;;;;;7.75;6.50;;;;;13.37;50.06;98739.44;4970422;28;101267;-77
2023/04/30 10:04:55;;;;;;;;;5.25;5.25;;;;;13.64;50.97;98729.31;4967404;27;101557;-75
2023/04/30 10:07:25;;;;;;;;;7.25;7.25;;;;;13.43;51.47;98737.75;4962671;28;101674;-76
2023/04/30 10:10:06;;;;;;;;;8.00;6.00;;;;;13.65;48.95;98727.41;4960436;28;103317;-76
2023/04/30 10:12:49;;;;;;;;;6.50;6.00;;;;;13.90;50.37;98728.31;4881548;28;102035;-77
2023/04/30 10:15:38;;;;;;;;;5.00;5.00;;;;;13.53;53.45;98737.28;4956405;28;101758;-74
2023/04/30 10:18:16;;;;;;;;;7.25;6.25;;;;;13.21;52.04;98718.22;4964688;28;101730;-75
2023/04/30 10:20:46;;;;;;;;;7.00;7.00;;;;;13.71;52.01;98730.09;4966671;28;107893;-74
2023/04/30 10:23:14;;;;;;;;;7.00;6.50;;;;;13.63;51.31;98724.06;4963664;28;101784;-75
2023/04/30 10:25:43;;;;;;;;;5.00;5.00;;;;;13.81;50.57;98730.44;4957604;28;101674;-76
2023/04/30 10:28:11;;;;;;;;;6.00;6.00;;;;;13.52;50.05;98731.00;4973366;28;101582;-74
2023/04/30 10:30:40;;;;;;;;;7.00;6.25;;;;;13.80;51.86;98733.38;4957038;28;103361;-75
2023/04/30 10:33:19;;;;;;;;;9.00;7.50;;;;;13.96;52.22;98727.41;4964799;28;101923;-74
2023/04/30 10:35:56;;;;;;;;;9.50;9.00;;;;;13.60;50.50;98729.97;4963939;28;101503;-76
2023/04/30 10:38:26;;;;;;;;;7.00;6.75;;;;;13.48;52.57;98735.22;4962557;28;101404;-75
2023/04/30 10:40:57;;;;;;;;;7.00;6.25;;;;;13.45;51.81;98713.09;4960615;28;103364;-75
2023/04/30 10:43:25;;;;;;;;;8.00;7.75;;;;;13.94;54.31;98717.81;4964023;28;102285;-73
2023/04/30 10:45:52;;;;;;;;;10.75;10.00;;;;;13.76;50.49;98732.16;4956833;28;101795;-76
2023/04/30 10:48:25;;;;;;;;;6.00;5.75;;;;;13.65;51.43;98730.94;4968286;28;101609;-74
2023/04/30 10:50:58;;;;;;;;;8.50;7.00;;;;;13.54;51.32;98728.94;4963753;28;103507;-75
2023/04/30 10:53:29;;;;;;;;;8.00;8.00;;;;;13.73;50.14;98717.09;4967976;28;101615;-74
2023/04/30 10:56:08;;;;;;;;;8.00;6.75;;;;;13.99;51.03;98713.41;4960141;28;104271;-75
2023/04/30 10:58:37;;;;;;;;;4.25;4.25;;;;;13.95;48.86;98709.44;4965483;27;101968;-76
2023/04/30 11:01:16;;;;;;;;;7.75;7.50;;;;;13.83;50.68;98694.88;4966611;28;103658;-76
2023/04/30 11:04:07;;;;;;;;;7.25;6.25;;;;;13.49;51.13;98726.03;4980727;28;101649;-76
2023/04/30 11:07:07;;;;;;;;;7.75;7.00;;;;;13.85;51.31;98719.97;4960855;28;101951;-76
2023/04/30 11:09:36;;;;;;;;;7.50;6.00;;;;;13.96;48.44;98719.25;4967372;28;101972;-76
2023/04/30 11:12:27;;;;;;;;;7.00;6.25;;;;;14.14;52.03;98721.22;4960035;28;103355;-74
2023/04/30 11:15:05;;;;;;;;;9.00;8.25;;;;;13.90;49.32;98720.16;4962067;28;102693;-75
2023/04/30 11:17:32;;;;;;;;;8.25;7.50;;;;;13.63;49.50;98718.66;4963249;28;101505;-76
2023/04/30 11:20:02;;;;;;;;;8.00;7.00;;;;;13.80;50.98;98722.50;4957070;28;101842;-74
2023/04/30 11:22:34;;;;;;;;;7.75;7.00;;;;;13.94;47.55;98721.38;4964530;28;103375;-77
2023/04/30 11:25:03;;;;;;;;;6.25;6.25;;;;;13.84;48.08;98707.44;4957970;28;101674;-74
2023/04/30 11:27:34;;;;;;;;;9.25;8.00;;;;;13.79;49.39;98721.66;4958234;28;101994;-76